createdAt,value
2018-07-25T00:02:23.867Z,8.13
2018-07-25T00:04:51.566Z,8.33
2018-07-25T00:07:19.258Z,8.83
2018-07-25T00:09:47.053Z,11.07
2018-07-25T00:12:14.832Z,10.20
2018-07-25T00:14:42.584Z,8.33
2018-07-25T00:17:10.391Z,9.50
2018-07-25T00:19:38.910Z,9.83
2018-07-25T00:22:06.642Z,9.93
2018-07-25T00:24:34.918Z,9.78
2018-07-25T00:27:02.617Z,10.15
2018-07-25T00:29:30.328Z,10.48
2018-07-25T00:31:58.063Z,10.13
2018-07-25T00:34:25.823Z,9.33
2018-07-25T00:36:53.717Z,9.90
2018-07-25T00:39:21.428Z,9.75
2018-07-25T00:41:49.164Z,8.87
2018-07-25T00:44:16.872Z,9.13
2018-07-25T00:46:44.615Z,10.28
2018-07-25T00:49:12.399Z,9.95
2018-07-25T00:51:40.121Z,9.78
2018-07-25T00:54:07.936Z,9.95
2018-07-25T00:56:35.824Z,9.90
2018-07-25T00:59:03.630Z,10.15
2018-07-25T01:01:31.797Z,9.73
2018-07-25T01:03:59.466Z,9.30
2018-07-25T01:06:27.129Z,9.73
2018-07-25T01:08:54.914Z,9.78
2018-07-25T01:11:22.629Z,9.58
2018-07-25T01:13:50.252Z,10.20
2018-07-25T01:16:17.992Z,10.68
2018-07-25T01:18:45.705Z,9.88
2018-07-25T01:21:13.614Z,11.05
2018-07-25T01:23:41.363Z,10.85
2018-07-25T01:26:09.184Z,9.80
2018-07-25T01:28:36.899Z,9.48
2018-07-25T01:31:04.585Z,9.50
2018-07-25T01:33:32.278Z,9.03
2018-07-25T01:35:59.963Z,8.60
2018-07-25T01:38:27.689Z,10.13
2018-07-25T01:40:55.419Z,10.30
2018-07-25T01:43:23.274Z,9.73
2018-07-25T01:45:51.000Z,9.30
2018-07-25T01:48:19.002Z,10.25
2018-07-25T01:50:46.757Z,10.82
2018-07-25T01:53:14.765Z,10.48
2018-07-25T01:55:42.786Z,10.18
2018-07-25T01:58:10.842Z,9.80
2018-07-25T02:00:38.698Z,9.70
2018-07-25T02:03:06.753Z,9.78
2018-07-25T02:05:34.534Z,9.28
2018-07-25T02:08:02.249Z,9.28
2018-07-25T02:10:29.970Z,9.38
2018-07-25T02:12:57.661Z,9.10
2018-07-25T02:15:25.362Z,8.93
2018-07-25T02:17:53.079Z,9.33
2018-07-25T02:20:20.738Z,9.68
2018-07-25T02:22:48.420Z,9.65
2018-07-25T02:25:16.142Z,9.57
2018-07-25T02:27:43.868Z,9.13
2018-07-25T02:30:12.480Z,9.10
2018-07-25T02:32:40.155Z,8.85
2018-07-25T02:35:07.815Z,8.48
2018-07-25T02:37:35.627Z,8.73
2018-07-25T02:40:03.473Z,8.73
2018-07-25T02:42:31.318Z,7.42
2018-07-25T02:44:58.946Z,7.90
2018-07-25T02:47:26.658Z,9.03
2018-07-25T02:49:54.334Z,9.98
2018-07-25T02:52:22.154Z,9.70
2018-07-25T02:54:49.721Z,10.30
2018-07-25T02:57:17.371Z,10.60
2018-07-25T02:59:45.065Z,9.90
2018-07-25T03:02:12.771Z,9.73
2018-07-25T03:04:40.835Z,9.08
2018-07-25T03:07:08.506Z,8.60
2018-07-25T03:09:36.291Z,7.17
2018-07-25T03:12:04.575Z,7.60
2018-07-25T03:14:32.231Z,8.53
2018-07-25T03:16:59.894Z,8.95
2018-07-25T03:19:27.601Z,9.30
2018-07-25T03:21:55.271Z,9.55
2018-07-25T03:24:22.978Z,9.65
2018-07-25T03:26:50.630Z,9.60
2018-07-25T03:29:18.313Z,9.35
2018-07-25T03:31:46.055Z,9.58
2018-07-25T03:34:13.769Z,8.90
2018-07-25T03:36:41.429Z,9.83
2018-07-25T03:39:09.085Z,8.68
2018-07-25T03:41:36.783Z,7.97
2018-07-25T03:44:04.349Z,7.75
2018-07-25T03:46:32.007Z,7.17
2018-07-25T03:48:59.756Z,7.60
2018-07-25T03:51:27.475Z,8.05
2018-07-25T03:53:55.767Z,8.00
2018-07-25T03:56:23.540Z,8.28
2018-07-25T03:58:51.363Z,8.33
2018-07-25T04:01:19.148Z,7.87
2018-07-25T04:03:46.993Z,9.30
2018-07-25T04:06:15.011Z,9.43
2018-07-25T04:08:43.448Z,7.78
2018-07-25T04:11:11.294Z,7.80
2018-07-25T04:13:39.041Z,8.08
2018-07-25T04:16:06.854Z,9.08
2018-07-25T04:18:34.610Z,9.03
2018-07-25T04:21:02.421Z,9.13
2018-07-25T04:23:30.253Z,8.50
2018-07-25T04:25:57.854Z,9.18
2018-07-25T04:28:25.550Z,10.93
2018-07-25T04:30:53.307Z,11.38
2018-07-25T04:33:21.073Z,10.48
2018-07-25T04:35:48.865Z,10.55
2018-07-25T04:38:16.688Z,10.10
2018-07-25T04:40:44.423Z,9.55
2018-07-25T04:43:12.409Z,11.93
2018-07-25T04:45:40.232Z,13.05
2018-07-25T04:48:07.975Z,13.13
2018-07-25T04:50:35.743Z,11.63
2018-07-25T04:53:03.489Z,9.98
2018-07-25T04:55:37.518Z,9.63
2018-07-25T04:58:05.246Z,9.25
2018-07-25T05:00:33.054Z,8.10
2018-07-25T05:03:00.766Z,8.43
2018-07-25T05:05:28.544Z,8.55
2018-07-25T05:07:56.399Z,8.28
2018-07-25T05:10:24.198Z,8.55
2018-07-25T05:12:51.924Z,6.53
2018-07-25T05:15:19.824Z,6.45
2018-07-25T05:17:47.610Z,8.68
2018-07-25T05:20:15.454Z,7.80
2018-07-25T05:22:43.077Z,9.70
2018-07-25T05:25:10.782Z,8.08
2018-07-25T05:27:38.497Z,7.05
2018-07-25T05:30:06.422Z,7.20
2018-07-25T05:32:34.090Z,6.30
2018-07-25T05:35:01.806Z,6.22
2018-07-25T05:37:29.612Z,7.08
2018-07-25T05:39:57.333Z,6.95
2018-07-25T05:42:25.210Z,6.83
2018-07-25T05:44:52.917Z,7.53
2018-07-25T05:47:20.682Z,6.30
2018-07-25T05:49:48.424Z,6.10
2018-07-25T05:52:16.154Z,5.28
2018-07-25T05:54:44.033Z,5.35
2018-07-25T05:57:11.789Z,6.42
2018-07-25T05:59:39.529Z,5.33
2018-07-25T06:02:08.141Z,5.63
2018-07-25T06:04:36.030Z,5.60
2018-07-25T06:07:03.802Z,5.05
2018-07-25T06:09:31.543Z,5.17
2018-07-25T06:11:59.257Z,6.03
2018-07-25T06:14:27.224Z,5.40
2018-07-25T06:16:54.959Z,5.50
2018-07-25T06:19:22.807Z,5.97
2018-07-25T06:21:50.623Z,10.18
2018-07-25T06:24:18.359Z,8.80
2018-07-25T06:26:46.201Z,7.03
2018-07-25T06:29:13.913Z,7.27
2018-07-25T06:31:41.734Z,8.80
2018-07-25T06:34:09.394Z,6.90
2018-07-25T06:36:37.176Z,6.95
2018-07-25T06:39:09.009Z,6.90
2018-07-25T06:41:36.824Z,5.58
2018-07-25T06:44:04.834Z,6.10
2018-07-25T06:46:32.559Z,4.83
2018-07-25T06:49:00.304Z,5.12
2018-07-25T06:51:29.057Z,5.17
2018-07-25T06:53:56.875Z,4.75
2018-07-25T06:56:25.178Z,4.45
2018-07-25T06:58:52.947Z,4.00
2018-07-25T07:01:20.627Z,4.30
2018-07-25T07:03:48.881Z,4.10
2018-07-25T07:06:16.622Z,4.90
2018-07-25T07:08:44.410Z,4.47
2018-07-25T07:11:12.157Z,6.45
2018-07-25T07:13:39.830Z,5.45
2018-07-25T07:16:07.570Z,5.28
2018-07-25T07:18:35.234Z,5.10
2018-07-25T07:21:02.876Z,5.10
2018-07-25T07:23:30.543Z,5.70
2018-07-25T07:25:58.411Z,8.23
2018-07-25T07:28:27.205Z,8.65
2018-07-25T07:30:54.888Z,8.43
2018-07-25T07:33:22.592Z,8.40
2018-07-25T07:35:50.293Z,8.35
2018-07-25T07:38:18.055Z,8.38
2018-07-25T07:40:45.744Z,7.00
2018-07-25T07:43:13.495Z,7.33
2018-07-25T07:45:41.773Z,9.93
2018-07-25T07:48:09.544Z,11.80
2018-07-25T07:50:37.366Z,12.40
2018-07-25T07:53:05.160Z,11.15
2018-07-25T07:55:33.435Z,9.68
2018-07-25T07:58:02.756Z,9.65
2018-07-25T08:00:30.638Z,7.70
2018-07-25T08:02:58.614Z,9.38
2018-07-25T08:05:26.300Z,10.60
2018-07-25T08:07:54.094Z,9.80
2018-07-25T08:10:21.774Z,10.03
2018-07-25T08:12:49.720Z,9.10
2018-07-25T08:15:17.568Z,8.20
2018-07-25T08:17:45.389Z,8.63
2018-07-25T08:20:13.235Z,8.08
2018-07-25T08:22:40.914Z,7.90
2018-07-25T08:25:08.707Z,8.78
2018-07-25T08:27:36.531Z,8.23
2018-07-25T08:30:04.998Z,8.33
2018-07-25T08:32:32.679Z,7.10
2018-07-25T08:35:00.396Z,6.92
2018-07-25T08:37:28.089Z,6.47
2018-07-25T08:39:55.772Z,5.92
2018-07-25T08:42:24.403Z,7.85
2018-07-25T08:44:52.286Z,7.00
2018-07-25T08:47:19.952Z,8.73
2018-07-25T08:49:47.681Z,10.68
2018-07-25T08:52:15.346Z,10.70
2018-07-25T08:54:43.113Z,9.85
2018-07-25T08:57:10.850Z,10.95
2018-07-25T08:59:38.665Z,9.20
2018-07-25T09:02:06.529Z,9.18
2018-07-25T09:04:34.269Z,7.83
2018-07-25T09:07:02.055Z,7.40
2018-07-25T09:09:29.742Z,6.20
2018-07-25T09:11:57.735Z,6.15
2018-07-25T09:14:25.361Z,5.60
2018-07-25T09:16:53.088Z,4.75
2018-07-25T09:19:20.737Z,4.80
2018-07-25T09:21:48.362Z,5.75
2018-07-25T09:24:16.038Z,5.37
2018-07-25T09:26:43.747Z,5.92
2018-07-25T09:29:11.476Z,8.30
2018-07-25T09:31:39.273Z,7.83
2018-07-25T09:34:07.047Z,7.15
2018-07-25T09:36:34.670Z,6.78
2018-07-25T09:39:02.492Z,6.58
2018-07-25T09:41:30.201Z,7.25
2018-07-25T09:43:57.842Z,5.40
2018-07-25T09:46:25.605Z,5.75
2018-07-25T09:48:53.376Z,7.40
2018-07-25T09:51:24.360Z,6.78
2018-07-25T09:53:52.233Z,4.95
2018-07-25T09:56:19.883Z,6.35
2018-07-25T09:58:47.866Z,6.30
2018-07-25T10:01:15.748Z,8.30
2018-07-25T10:03:43.694Z,7.25
2018-07-25T10:06:11.820Z,8.25
2018-07-25T10:08:39.598Z,7.97
2018-07-25T10:11:07.555Z,7.53
2018-07-25T10:13:35.251Z,5.92
2018-07-25T10:16:03.030Z,4.85
2018-07-25T10:18:30.743Z,6.00
2018-07-25T10:20:59.074Z,7.03
2018-07-25T10:23:27.013Z,6.47
2018-07-25T10:25:54.801Z,7.62
2018-07-25T10:28:22.476Z,6.92
2018-07-25T10:30:50.239Z,8.00
2018-07-25T10:33:18.031Z,7.05
2018-07-25T10:35:45.736Z,7.37
2018-07-25T10:38:13.437Z,7.15
2018-07-25T10:40:41.223Z,7.60
2018-07-25T10:43:08.824Z,6.62
2018-07-25T10:45:36.514Z,6.97
2018-07-25T10:48:04.526Z,7.45
2018-07-25T10:50:32.283Z,7.05
2018-07-25T10:53:00.175Z,6.65
2018-07-25T10:55:27.922Z,6.90
2018-07-25T10:57:55.682Z,6.87
2018-07-25T11:00:23.439Z,5.53
2018-07-25T11:02:51.274Z,5.20
2018-07-25T11:05:19.031Z,5.03
2018-07-25T11:07:46.774Z,5.33
2018-07-25T11:10:14.460Z,5.00
2018-07-25T11:12:42.193Z,4.75
2018-07-25T11:15:09.855Z,6.47
2018-07-25T11:17:37.527Z,5.75
2018-07-25T11:20:08.126Z,4.67
2018-07-25T11:22:35.801Z,4.90
2018-07-25T11:25:03.536Z,5.05
2018-07-25T11:27:31.286Z,5.50
2018-07-25T11:29:59.015Z,6.08
2018-07-25T11:32:26.704Z,5.17
2018-07-25T11:34:54.525Z,5.28
2018-07-25T11:37:22.210Z,5.47
2018-07-25T11:39:49.946Z,5.55
2018-07-25T11:42:17.596Z,6.28
2018-07-25T11:44:45.233Z,6.30
2018-07-25T11:47:12.942Z,5.85
2018-07-25T11:49:40.646Z,6.22
2018-07-25T11:52:08.424Z,5.75
2018-07-25T11:54:36.108Z,5.35
2018-07-25T11:57:04.137Z,6.12
2018-07-25T11:59:31.834Z,6.22
2018-07-25T12:01:59.779Z,6.10
2018-07-25T12:04:27.558Z,6.28
2018-07-25T12:06:55.413Z,6.35
2018-07-25T12:09:23.147Z,5.53
2018-07-25T12:11:50.892Z,5.92
2018-07-25T12:14:18.858Z,5.40
2018-07-25T12:16:46.614Z,5.05
2018-07-25T12:19:14.683Z,5.22
2018-07-25T12:21:42.371Z,5.08
2018-07-25T12:24:10.095Z,5.80
2018-07-25T12:26:37.871Z,5.42
2018-07-25T12:29:05.623Z,4.87
2018-07-25T12:31:33.212Z,4.90
2018-07-25T12:34:01.002Z,4.47
2018-07-25T12:36:28.735Z,4.67
2018-07-25T12:38:56.544Z,4.12
2018-07-25T12:41:24.249Z,4.53
2018-07-25T12:43:52.027Z,4.85
2018-07-25T12:46:20.813Z,3.72
2018-07-25T12:48:48.577Z,4.08
2018-07-25T12:51:16.614Z,3.30
2018-07-25T12:53:47.958Z,4.40
2018-07-25T12:56:16.189Z,4.63
2018-07-25T12:58:44.006Z,4.12
2018-07-25T13:01:12.878Z,4.00
2018-07-25T13:03:40.739Z,4.12
2018-07-25T13:06:09.116Z,4.08
2018-07-25T13:08:37.899Z,4.50
2018-07-25T13:11:06.452Z,4.17
2018-07-25T13:13:35.886Z,3.80
2018-07-25T13:16:06.157Z,3.90
2018-07-25T13:18:33.951Z,4.70
2018-07-25T13:21:01.792Z,4.00
2018-07-25T13:23:30.003Z,4.30
2018-07-25T13:25:59.640Z,4.20
2018-07-25T13:28:31.262Z,4.40
2018-07-25T13:30:59.042Z,3.95
2018-07-25T13:33:27.337Z,5.85
2018-07-25T13:35:57.598Z,5.33
2018-07-25T13:38:26.641Z,4.05
2018-07-25T13:40:54.950Z,6.50
2018-07-25T13:43:22.780Z,6.30
2018-07-25T13:45:51.901Z,6.45
2018-07-25T13:48:19.804Z,5.70
2018-07-25T13:50:49.089Z,5.97
2018-07-25T13:53:20.082Z,5.73
2018-07-25T13:55:48.564Z,5.10
2018-07-25T13:58:17.112Z,5.60
2018-07-25T14:00:45.402Z,6.25
2018-07-25T14:03:14.517Z,5.95
2018-07-25T14:05:44.118Z,6.30
2018-07-25T14:08:11.920Z,6.42
2018-07-25T14:10:39.844Z,6.58
2018-07-25T14:13:07.569Z,6.80
2018-07-25T14:15:35.314Z,6.10
2018-07-25T14:18:03.364Z,6.05
2018-07-25T14:20:31.304Z,7.12
2018-07-25T14:22:59.972Z,6.05
2018-07-25T14:25:27.782Z,6.97
2018-07-25T14:27:58.706Z,6.87
2018-07-25T14:30:26.846Z,6.03
2018-07-25T14:32:54.485Z,5.75
2018-07-25T14:35:23.008Z,5.80
2018-07-25T14:37:52.122Z,6.28
2018-07-25T14:40:20.422Z,6.75
2018-07-25T14:42:49.278Z,6.05
2018-07-25T14:45:17.683Z,5.87
2018-07-25T14:47:45.398Z,5.90
2018-07-25T14:50:13.183Z,4.85
2018-07-25T14:52:41.093Z,6.40
2018-07-25T14:55:10.210Z,6.62
2018-07-25T14:57:39.022Z,7.15
2018-07-25T15:00:07.415Z,7.70
2018-07-25T15:02:35.748Z,7.05
2018-07-25T15:05:06.169Z,7.03
2018-07-25T15:07:33.987Z,7.15
2018-07-25T15:10:05.010Z,6.15
2018-07-25T15:12:39.378Z,5.85
2018-07-25T15:15:08.147Z,5.78
2018-07-25T15:17:36.981Z,4.90
2018-07-25T15:20:08.251Z,4.90
2018-07-25T15:22:37.448Z,5.20
2018-07-25T15:25:11.532Z,5.50
2018-07-25T15:27:40.862Z,4.83
2018-07-25T15:30:09.632Z,4.17
2018-07-25T15:32:37.697Z,3.87
2018-07-25T15:35:06.860Z,3.30
2018-07-25T15:37:36.487Z,4.33
2018-07-25T15:40:05.584Z,4.85
2018-07-25T15:42:33.598Z,4.00
2018-07-25T15:45:01.381Z,5.22
2018-07-25T15:47:31.402Z,5.37
2018-07-25T15:50:01.159Z,4.80
2018-07-25T15:52:29.010Z,4.60
2018-07-25T15:55:02.856Z,4.90
2018-07-25T15:57:31.215Z,4.80
2018-07-25T15:59:59.781Z,4.85
2018-07-25T16:02:27.816Z,5.78
2018-07-25T16:04:59.712Z,5.22
2018-07-25T16:07:31.250Z,4.78
2018-07-25T16:10:01.412Z,5.22
2018-07-25T16:12:30.307Z,4.40
2018-07-25T16:14:59.461Z,4.78
2018-07-25T16:17:27.754Z,4.87
2018-07-25T16:19:55.606Z,4.62
2018-07-25T16:22:23.484Z,5.12
2018-07-25T16:24:51.565Z,4.55
2018-07-25T16:27:19.393Z,5.12
2018-07-25T16:29:47.151Z,6.20
2018-07-25T16:32:14.942Z,5.55
2018-07-25T16:34:42.778Z,5.47
2018-07-25T16:37:10.687Z,5.37
2018-07-25T16:39:38.486Z,4.78
2018-07-25T16:42:06.324Z,5.28
2018-07-25T16:44:33.954Z,5.40
2018-07-25T16:47:02.402Z,4.83
2018-07-25T16:49:30.213Z,4.58
2018-07-25T16:51:57.962Z,4.53
2018-07-25T16:54:25.731Z,4.55
2018-07-25T16:56:53.429Z,5.17
2018-07-25T16:59:21.198Z,5.67
2018-07-25T17:01:48.977Z,5.20
2018-07-25T17:04:16.671Z,4.47
2018-07-25T17:06:44.506Z,4.28
2018-07-25T17:09:12.554Z,4.55
2018-07-25T17:11:40.891Z,4.55
2018-07-25T17:14:08.534Z,5.45
2018-07-25T17:16:36.465Z,5.72
2018-07-25T17:19:04.240Z,6.70
2018-07-25T17:21:31.999Z,7.47
2018-07-25T17:24:00.320Z,7.08
2018-07-25T17:26:28.076Z,7.67
2018-07-25T17:28:56.002Z,7.33
2018-07-25T17:31:28.673Z,6.10
2018-07-25T17:33:56.810Z,6.70
2018-07-25T17:36:24.514Z,7.60
2018-07-25T17:38:52.276Z,7.65
2018-07-25T17:41:20.022Z,6.70
2018-07-25T17:43:47.732Z,7.72
2018-07-25T17:46:15.679Z,7.62
2018-07-25T17:48:43.438Z,7.77
2018-07-25T17:51:11.181Z,7.47
2018-07-25T17:53:38.964Z,7.10
2018-07-25T17:56:06.757Z,7.15
2018-07-25T17:58:34.462Z,6.60
2018-07-25T18:01:02.225Z,5.20
2018-07-25T18:03:30.380Z,5.00
2018-07-25T18:05:58.076Z,4.85
2018-07-25T18:08:26.004Z,4.72
2018-07-25T18:10:53.808Z,4.23
2018-07-25T18:13:27.213Z,4.58
2018-07-25T18:15:55.145Z,4.73
2018-07-25T18:18:23.077Z,3.95
2018-07-25T18:20:50.822Z,4.17
2018-07-25T18:23:18.670Z,3.95
2018-07-25T18:25:46.456Z,3.60
2018-07-25T18:28:14.489Z,3.95
2018-07-25T18:30:42.317Z,4.70
2018-07-25T18:33:10.142Z,5.15
2018-07-25T18:35:37.916Z,5.20
2018-07-25T18:38:05.734Z,4.13
2018-07-25T18:40:33.520Z,3.70
2018-07-25T18:43:01.299Z,4.60
2018-07-25T18:45:29.046Z,3.83
2018-07-25T18:47:56.895Z,4.50
2018-07-25T18:50:25.752Z,5.00
2018-07-25T18:53:08.765Z,5.34
2018-07-25T18:55:37.003Z,5.50
2018-07-25T18:58:05.010Z,5.80
2018-07-25T19:00:32.782Z,5.65
2018-07-25T19:03:00.499Z,8.68
2018-07-25T19:05:43.691Z,8.68
2018-07-25T19:08:27.830Z,8.08
2018-07-25T19:11:01.479Z,8.13
2018-07-25T19:13:37.165Z,7.58
2018-07-25T19:16:05.666Z,6.60
2018-07-25T19:18:33.654Z,6.55
2018-07-25T19:21:01.445Z,6.20
2018-07-25T19:23:29.309Z,5.90
2018-07-25T19:25:58.237Z,6.28
2018-07-25T19:28:26.714Z,6.40
2018-07-25T19:30:54.398Z,5.95
2018-07-25T19:33:22.447Z,6.25
2018-07-25T19:35:50.165Z,6.10
2018-07-25T19:38:21.937Z,5.65
2018-07-25T19:40:52.710Z,5.42
2018-07-25T19:43:20.805Z,5.00
2018-07-25T19:45:48.436Z,5.15
2018-07-25T19:48:16.121Z,5.70
2018-07-25T19:50:43.862Z,5.65
2018-07-25T19:53:11.566Z,5.80
2018-07-25T19:55:39.270Z,4.78
2018-07-25T19:58:17.490Z,4.23
2018-07-25T20:00:45.653Z,5.30
2018-07-25T20:03:13.462Z,5.55
2018-07-25T20:05:42.432Z,4.85
2018-07-25T20:08:10.149Z,5.60
2018-07-25T20:10:39.383Z,7.00
2018-07-25T20:13:07.191Z,6.12
2018-07-25T20:15:40.736Z,5.35
2018-07-25T20:18:09.350Z,6.17
2018-07-25T20:20:39.124Z,5.47
2018-07-25T20:23:06.821Z,5.40
2018-07-25T20:25:34.565Z,5.97
2018-07-25T20:28:02.287Z,5.42
2018-07-25T20:30:30.005Z,5.75
2018-07-25T20:32:57.753Z,5.80
2018-07-25T20:35:25.584Z,6.30
2018-07-25T20:37:54.402Z,6.30
2018-07-25T20:40:22.258Z,5.00
2018-07-25T20:42:51.190Z,5.55
2018-07-25T20:45:19.078Z,5.97
2018-07-25T20:47:46.826Z,5.55
2018-07-25T20:50:14.540Z,5.10
2018-07-25T20:52:42.845Z,5.60
2018-07-25T20:55:10.569Z,5.83
2018-07-25T20:57:38.274Z,5.58
2018-07-25T21:00:06.131Z,6.12
2018-07-25T21:02:33.767Z,6.50
2018-07-25T21:05:01.504Z,6.75
2018-07-25T21:07:29.272Z,6.17
2018-07-25T21:09:57.094Z,6.50
2018-07-25T21:12:25.091Z,6.60
2018-07-25T21:14:52.797Z,5.83
2018-07-25T21:17:20.747Z,5.90
2018-07-25T21:19:48.699Z,4.95
2018-07-25T21:22:16.421Z,4.92
2018-07-25T21:24:44.318Z,6.15
2018-07-25T21:27:12.083Z,6.55
2018-07-25T21:29:39.825Z,6.03
2018-07-25T21:32:07.718Z,5.17
2018-07-25T21:34:35.421Z,5.75
2018-07-25T21:37:03.231Z,5.20
2018-07-25T21:39:30.942Z,6.30
2018-07-25T21:41:58.747Z,8.28
2018-07-25T21:44:26.649Z,7.12
2018-07-25T21:46:54.636Z,6.20
2018-07-25T21:49:22.354Z,6.30
2018-07-25T21:51:50.170Z,8.35
2018-07-25T21:54:17.963Z,10.23
2018-07-25T21:56:45.765Z,8.80
2018-07-25T21:59:13.610Z,7.87
2018-07-25T22:01:41.472Z,7.08
2018-07-25T22:04:09.291Z,6.67
2018-07-25T22:06:37.395Z,6.28
2018-07-25T22:09:07.426Z,6.60
2018-07-25T22:11:35.142Z,6.78
2018-07-25T22:14:03.294Z,6.47
2018-07-25T22:16:31.107Z,6.65
2018-07-25T22:18:59.023Z,5.47
2018-07-25T22:21:26.834Z,5.28
2018-07-25T22:23:54.593Z,6.90
2018-07-25T22:26:22.323Z,7.62
2018-07-25T22:28:50.083Z,8.58
2018-07-25T22:31:17.945Z,9.28
2018-07-25T22:33:46.049Z,8.73
2018-07-25T22:36:14.444Z,8.58
2018-07-25T22:38:42.281Z,8.83
2018-07-25T22:41:10.002Z,8.68
2018-07-25T22:43:37.814Z,7.15
2018-07-25T22:46:06.591Z,6.53
2018-07-25T22:48:34.451Z,6.62
2018-07-25T22:51:02.122Z,6.62
2018-07-25T22:53:29.982Z,6.45
2018-07-25T22:55:57.789Z,6.15
2018-07-25T22:58:25.631Z,5.95
2018-07-25T23:00:53.487Z,6.25
2018-07-25T23:03:21.354Z,7.15
2018-07-25T23:05:49.201Z,7.10
2018-07-25T23:08:16.916Z,6.78
2018-07-25T23:10:45.089Z,7.03
2018-07-25T23:13:13.105Z,6.50
2018-07-25T23:15:41.373Z,6.67
2018-07-25T23:18:09.597Z,5.85
2018-07-25T23:20:37.460Z,5.92
2018-07-25T23:23:05.488Z,6.50
2018-07-25T23:25:33.317Z,5.97
2018-07-25T23:28:01.178Z,6.55
2018-07-25T23:30:29.447Z,7.47
2018-07-25T23:32:57.225Z,7.15
2018-07-25T23:35:25.051Z,7.20
2018-07-25T23:37:52.902Z,6.87
2018-07-25T23:40:20.850Z,6.15
2018-07-25T23:42:49.195Z,5.53
2018-07-25T23:45:17.187Z,5.90
2018-07-25T23:47:45.810Z,6.62
2018-07-25T23:50:19.360Z,7.30
2018-07-25T23:52:47.137Z,6.53
2018-07-25T23:55:14.953Z,6.10
2018-07-25T23:57:43.013Z,6.25
